Time;durP1;ratioP1;P1;durP2;ratioP2;P2;SDS_P1;SDS_P2;PMS_P1;PMS_P2;Temp;Humidity;BMP_temperature;BMP_pressure;BME280_temperature;BME280_humidity;BME280_pressure;Samples;Min_cycle;Max_cycle;Signal;HPM_P1;HPM_P2
2021/09/13 00:01:57;;;;;;;2.78;1.88;;;22.70;99.90;;;;;;5074245;28;20476;-76
2021/09/13 00:04:23;;;;;;;2.13;1.92;;;22.70;99.90;;;;;;5091154;28;20024;-76
2021/09/13 00:06:49;;;;;;;2.65;1.60;;;22.70;99.90;;;;;;5091762;28;20383;-76
2021/09/13 00:09:14;;;;;;;2.47;1.73;;;22.70;99.90;;;;;;5091478;28;20016;-76
2021/09/13 00:11:40;;;;;;;2.15;1.90;;;22.70;99.90;;;;;;5091144;28;20032;-76
2021/09/13 00:14:06;;;;;;;2.10;1.77;;;22.70;99.90;;;;;;5093490;28;20048;-76
2021/09/13 00:16:31;;;;;;;2.22;1.75;;;22.70;99.90;;;;;;5111033;28;20030;-76
2021/09/13 00:18:57;;;;;;;1.90;1.80;;;22.70;99.90;;;;;;5091424;28;20024;-76
2021/09/13 00:21:23;;;;;;;2.88;1.90;;;22.70;99.90;;;;;;5091183;28;20508;-76
2021/09/13 00:23:48;;;;;;;1.90;1.70;;;22.70;99.90;;;;;;5083036;28;20027;-74
2021/09/13 00:26:14;;;;;;;1.70;1.50;;;22.70;99.90;;;;;;5093857;28;20059;-74
2021/09/13 00:28:40;;;;;;;2.10;1.90;;;22.60;99.90;;;;;;5092000;28;20039;-74
2021/09/13 00:31:05;;;;;;;2.33;2.00;;;22.60;99.90;;;;;;5108914;28;20051;-75
2021/09/13 00:33:31;;;;;;;2.13;1.55;;;22.60;99.90;;;;;;5102147;28;20519;-74
2021/09/13 00:35:56;;;;;;;2.38;1.77;;;22.60;99.90;;;;;;5091175;28;20509;-74
2021/09/13 00:38:22;;;;;;;2.67;1.70;;;22.60;99.90;;;;;;5091086;28;20047;-74
2021/09/13 00:40:48;;;;;;;1.98;1.77;;;22.60;99.90;;;;;;5091442;28;20086;-74
2021/09/13 00:43:13;;;;;;;2.15;1.95;;;22.60;99.90;;;;;;5099801;28;20059;-74
2021/09/13 00:45:39;;;;;;;2.30;1.73;;;22.60;99.90;;;;;;5095711;28;20036;-74
2021/09/13 00:48:05;;;;;;;2.00;1.50;;;22.60;99.90;;;;;;5093256;28;20023;-75
2021/09/13 00:50:31;;;;;;;2.55;1.77;;;22.60;99.90;;;;;;5105720;28;20083;-74
2021/09/13 00:52:57;;;;;;;1.73;1.63;;;22.60;99.90;;;;;;5107832;28;20027;-74
2021/09/13 00:55:23;;;;;;;2.05;1.80;;;22.60;99.90;;;;;;5090729;28;20033;-74
2021/09/13 00:57:51;;;;;;;2.88;1.92;;;22.60;99.90;;;;;;5093333;28;20035;-75
2021/09/13 01:00:17;;;;;;;1.83;1.63;;;22.60;99.90;;;;;;5105184;28;20054;-74
2021/09/13 01:02:43;;;;;;;2.42;1.92;;;22.60;99.90;;;;;;5095847;28;20030;-75
2021/09/13 01:05:10;;;;;;;2.13;1.75;;;22.50;99.90;;;;;;5091011;28;20471;-74
2021/09/13 01:07:36;;;;;;;1.58;1.48;;;22.60;99.90;;;;;;5093733;28;20032;-74
2021/09/13 01:10:03;;;;;;;2.65;1.90;;;22.50;99.90;;;;;;5094438;28;20101;-75
2021/09/13 01:12:30;;;;;;;1.70;1.60;;;22.50;99.90;;;;;;5094211;28;20058;-75
2021/09/13 01:14:55;;;;;;;2.13;1.83;;;22.50;99.90;;;;;;5103060;28;20051;-74
2021/09/13 01:17:21;;;;;;;1.70;1.50;;;22.50;99.90;;;;;;5089136;28;20498;-74
2021/09/13 01:19:47;;;;;;;1.75;1.65;;;22.50;99.90;;;;;;5094657;28;20091;-75
2021/09/13 01:22:13;;;;;;;1.77;1.60;;;22.50;99.90;;;;;;5094555;28;20034;-75
2021/09/13 01:24:39;;;;;;;2.30;1.70;;;22.50;99.90;;;;;;5094772;28;20103;-75
2021/09/13 01:27:08;;;;;;;2.10;1.75;;;22.50;99.90;;;;;;5094227;28;20451;-75
2021/09/13 01:29:34;;;;;;;2.05;1.63;;;22.50;99.90;;;;;;5094116;28;20031;-75
2021/09/13 01:32:01;;;;;;;1.60;1.48;;;22.50;99.90;;;;;;5104791;28;20062;-75
2021/09/13 01:34:27;;;;;;;2.15;1.40;;;22.50;99.90;;;;;;5093676;28;20028;-74
2021/09/13 01:36:53;;;;;;;1.63;1.38;;;22.50;99.90;;;;;;5093880;28;20032;-74
2021/09/13 01:39:19;;;;;;;1.63;1.52;;;22.50;99.90;;;;;;5103168;28;20020;-74
2021/09/13 01:41:45;;;;;;;1.60;1.50;;;22.40;99.90;;;;;;5099209;28;20044;-75
2021/09/13 01:44:13;;;;;;;2.53;1.50;;;22.40;99.90;;;;;;5095948;28;20024;-75
2021/09/13 01:46:40;;;;;;;2.83;1.90;;;22.50;99.90;;;;;;5113640;28;20028;-75
2021/09/13 01:49:06;;;;;;;1.42;1.33;;;22.40;99.90;;;;;;5111885;28;20032;-76
2021/09/13 01:51:32;;;;;;;3.00;1.50;;;22.40;99.90;;;;;;5093472;28;20032;-75
2021/09/13 01:53:58;;;;;;;1.65;1.45;;;22.40;99.90;;;;;;5107543;28;20106;-76
2021/09/13 01:56:24;;;;;;;2.28;1.58;;;22.40;99.90;;;;;;5095788;28;20028;-75
2021/09/13 01:58:49;;;;;;;1.90;1.48;;;22.40;99.90;;;;;;5075699;28;20032;-75
2021/09/13 02:01:15;;;;;;;1.52;1.40;;;22.40;99.90;;;;;;5112847;28;20026;-75
2021/09/13 02:03:41;;;;;;;1.67;1.58;;;22.40;99.90;;;;;;5095519;28;20031;-74
2021/09/13 02:06:07;;;;;;;2.13;1.40;;;22.40;99.90;;;;;;5097574;28;20032;-75
2021/09/13 02:08:32;;;;;;;1.50;1.40;;;22.40;99.90;;;;;;5093052;28;20027;-74
2021/09/13 02:10:58;;;;;;;1.90;1.45;;;22.40;99.90;;;;;;5093532;28;20028;-75
2021/09/13 02:13:24;;;;;;;2.58;1.50;;;22.40;99.90;;;;;;5093481;28;20422;-74
2021/09/13 02:15:50;;;;;;;2.00;1.52;;;22.40;99.90;;;;;;5109078;28;20095;-73
2021/09/13 02:18:15;;;;;;;1.60;1.20;;;22.40;99.90;;;;;;5113314;28;20066;-74
2021/09/13 02:20:41;;;;;;;2.95;1.58;;;22.40;99.90;;;;;;5113366;28;20444;-75
2021/09/13 02:23:07;;;;;;;1.58;1.40;;;22.40;99.90;;;;;;5110325;28;20069;-75
2021/09/13 02:25:33;;;;;;;2.13;1.40;;;22.30;99.90;;;;;;5092706;28;20024;-75
2021/09/13 02:27:59;;;;;;;2.13;1.88;;;22.30;99.90;;;;;;5093169;28;20028;-75
2021/09/13 02:30:24;;;;;;;1.42;1.27;;;22.30;99.90;;;;;;5105682;28;20469;-75
2021/09/13 02:32:50;;;;;;;1.40;1.30;;;22.30;99.90;;;;;;5112712;28;20020;-75
2021/09/13 02:35:16;;;;;;;1.95;1.20;;;22.30;99.90;;;;;;5113626;28;20027;-75
2021/09/13 02:37:41;;;;;;;1.40;1.30;;;22.30;99.90;;;;;;5102971;28;20036;-75
2021/09/13 02:40:08;;;;;;;2.83;1.65;;;22.30;99.90;;;;;;5108898;28;20031;-76
2021/09/13 02:42:34;;;;;;;1.77;1.58;;;22.30;99.90;;;;;;5092444;28;20605;-75
2021/09/13 02:44:59;;;;;;;1.65;1.30;;;22.30;99.90;;;;;;5082427;28;20122;-75
2021/09/13 02:47:25;;;;;;;1.85;1.50;;;22.30;99.90;;;;;;5110033;28;20464;-75
2021/09/13 02:49:51;;;;;;;1.67;1.40;;;22.30;99.90;;;;;;5100259;28;20031;-75
2021/09/13 02:52:17;;;;;;;1.75;1.35;;;22.30;99.90;;;;;;5106257;28;20104;-76
2021/09/13 02:54:42;;;;;;;1.60;1.35;;;22.30;99.90;;;;;;5107326;28;20042;-75
2021/09/13 02:57:08;;;;;;;1.50;1.20;;;22.30;99.90;;;;;;5092480;28;20032;-75
2021/09/13 02:59:34;;;;;;;1.35;1.10;;;22.30;99.90;;;;;;5096757;28;20053;-76
2021/09/13 03:01:59;;;;;;;1.55;1.27;;;22.30;99.90;;;;;;5108362;28;20056;-75
2021/09/13 03:04:25;;;;;;;1.65;1.35;;;22.30;99.90;;;;;;5092050;28;20460;-75
2021/09/13 03:06:51;;;;;;;1.70;1.48;;;22.20;99.90;;;;;;5092223;28;20032;-75
2021/09/13 03:09:17;;;;;;;1.92;1.48;;;22.30;99.90;;;;;;5092541;28;20028;-75
2021/09/13 03:11:43;;;;;;;1.65;1.33;;;22.20;99.90;;;;;;5091971;28;20024;-75
2021/09/13 03:14:09;;;;;;;1.52;1.42;;;22.30;99.90;;;;;;5093074;28;20028;-74
2021/09/13 03:16:35;;;;;;;2.58;1.50;;;22.20;99.90;;;;;;5111856;28;20027;-75
2021/09/13 03:19:01;;;;;;;2.50;1.25;;;22.30;99.90;;;;;;5092044;28;20024;-75
2021/09/13 03:21:27;;;;;;;1.40;1.20;;;22.20;99.90;;;;;;5091776;28;20063;-74
2021/09/13 03:23:52;;;;;;;1.75;1.20;;;22.20;99.90;;;;;;5101855;28;20070;-76
2021/09/13 03:26:18;;;;;;;1.20;1.10;;;22.20;99.90;;;;;;5092432;28;20024;-76
2021/09/13 03:28:44;;;;;;;1.70;1.00;;;22.20;99.90;;;;;;5095705;28;20028;-76
2021/09/13 03:31:09;;;;;;;1.35;1.20;;;22.20;99.90;;;;;;5094060;28;20028;-75
2021/09/13 03:33:35;;;;;;;1.95;1.50;;;22.20;99.90;;;;;;5091570;28;20036;-75
2021/09/13 03:36:02;;;;;;;2.30;1.52;;;22.20;99.90;;;;;;5091850;28;20169;-75
2021/09/13 03:38:27;;;;;;;1.65;1.13;;;22.20;99.90;;;;;;5091437;28;20040;-75
2021/09/13 03:40:53;;;;;;;1.42;1.30;;;22.20;99.90;;;;;;5105952;28;20391;-75
2021/09/13 03:43:19;;;;;;;1.63;1.42;;;22.20;99.90;;;;;;5094245;28;20035;-75
2021/09/13 03:45:45;;;;;;;1.50;1.27;;;22.20;99.90;;;;;;5097089;28;20536;-75
2021/09/13 03:48:10;;;;;;;1.90;1.20;;;22.20;99.90;;;;;;5091496;28;20032;-74
2021/09/13 03:50:36;;;;;;;1.20;1.10;;;22.20;99.90;;;;;;5091411;28;20111;-75
2021/09/13 03:53:03;;;;;;;1.40;1.25;;;22.10;99.90;;;;;;5101041;28;20387;-75
2021/09/13 03:55:29;;;;;;;1.40;1.20;;;22.20;99.90;;;;;;5091320;28;20028;-75
2021/09/13 03:57:54;;;;;;;2.25;1.20;;;22.10;99.90;;;;;;5095461;28;20119;-76
2021/09/13 04:00:20;;;;;;;1.48;1.38;;;22.20;99.90;;;;;;5102180;28;20062;-74
2021/09/13 04:02:47;;;;;;;1.30;1.10;;;22.10;99.90;;;;;;5097057;28;20039;-77
2021/09/13 04:05:17;;;;;;;1.60;1.20;;;22.20;99.90;;;;;;5091702;28;20487;-75
2021/09/13 04:10:34;;;;;;;1.75;1.35;;;22.20;99.90;;;;;;5106881;28;20031;-75
2021/09/13 04:13:00;;;;;;;1.42;1.30;;;22.10;99.90;;;;;;5111647;28;20051;-75
2021/09/13 04:15:26;;;;;;;1.40;1.30;;;22.10;99.90;;;;;;5099491;28;20411;-75
2021/09/13 04:17:51;;;;;;;1.27;1.10;;;22.10;99.90;;;;;;5101925;28;20046;-72
2021/09/13 04:20:17;;;;;;;1.27;1.17;;;22.10;99.90;;;;;;5111983;28;20068;-74
2021/09/13 04:22:43;;;;;;;1.55;1.42;;;22.10;99.90;;;;;;5101320;28;20392;-75
2021/09/13 04:25:08;;;;;;;1.30;1.05;;;22.10;99.90;;;;;;5103590;28;20021;-75
2021/09/13 04:27:34;;;;;;;1.42;1.05;;;22.10;99.90;;;;;;5091004;28;20043;-72
2021/09/13 04:30:00;;;;;;;1.67;1.20;;;22.10;99.90;;;;;;5091007;28;20039;-72
2021/09/13 04:32:25;;;;;;;1.30;1.20;;;22.10;99.90;;;;;;5090937;28;20028;-73
2021/09/13 04:34:51;;;;;;;1.85;1.00;;;22.10;99.90;;;;;;5091011;28;20026;-73
2021/09/13 04:37:17;;;;;;;1.88;0.98;;;22.10;99.90;;;;;;5091859;28;20051;-75
2021/09/13 04:39:42;;;;;;;1.30;1.20;;;22.10;99.90;;;;;;5099848;28;20467;-74
2021/09/13 04:42:08;;;;;;;1.50;1.40;;;22.10;99.90;;;;;;5112347;28;20024;-72
2021/09/13 04:44:34;;;;;;;1.40;1.30;;;22.10;99.90;;;;;;5110669;28;20430;-74
2021/09/13 04:47:00;;;;;;;1.35;1.20;;;22.10;99.90;;;;;;5094959;28;20054;-75
2021/09/13 04:49:26;;;;;;;1.65;1.40;;;22.10;99.90;;;;;;5094414;28;20059;-74
2021/09/13 04:51:52;;;;;;;1.77;1.33;;;22.10;99.90;;;;;;5095114;28;20583;-75
2021/09/13 04:54:18;;;;;;;1.52;1.25;;;22.10;99.90;;;;;;5103499;28;20118;-74
2021/09/13 04:56:44;;;;;;;1.38;1.20;;;22.00;99.90;;;;;;5115358;28;20425;-75
2021/09/13 04:59:10;;;;;;;1.30;1.17;;;22.00;99.90;;;;;;5114501;28;20027;-75
2021/09/13 05:01:36;;;;;;;1.80;1.23;;;22.00;99.90;;;;;;5096878;28;20567;-75
2021/09/13 05:04:03;;;;;;;1.23;1.13;;;22.00;99.90;;;;;;5113313;28;20066;-74
2021/09/13 05:06:28;;;;;;;1.58;1.35;;;22.00;99.90;;;;;;5114738;28;20559;-74
2021/09/13 05:08:54;;;;;;;1.85;1.30;;;22.00;99.90;;;;;;5114769;28;20028;-75
2021/09/13 05:11:20;;;;;;;1.52;0.98;;;22.00;99.90;;;;;;5096404;28;20034;-74
2021/09/13 05:13:46;;;;;;;1.63;1.20;;;22.00;99.90;;;;;;5114856;28;20387;-73
2021/09/13 05:16:12;;;;;;;1.58;1.10;;;22.00;99.90;;;;;;5097087;28;20122;-74
2021/09/13 05:18:37;;;;;;;1.40;1.30;;;22.00;99.90;;;;;;5107436;28;20035;-73
2021/09/13 05:21:04;;;;;;;2.50;1.50;;;22.00;99.90;;;;;;5114860;28;20038;-75
2021/09/13 05:23:30;;;;;;;1.45;1.13;;;22.00;99.90;;;;;;5112366;28;20023;-75
2021/09/13 05:25:56;;;;;;;1.42;1.17;;;22.00;99.90;;;;;;5094193;28;20137;-73
2021/09/13 05:28:21;;;;;;;1.70;1.10;;;22.00;99.90;;;;;;5096217;28;20028;-72
2021/09/13 05:30:48;;;;;;;2.13;1.50;;;22.00;99.90;;;;;;5109665;28;20027;-75
2021/09/13 05:33:14;;;;;;;2.53;1.10;;;22.00;99.90;;;;;;5112699;28;20053;-74
2021/09/13 05:35:40;;;;;;;1.98;1.30;;;22.00;99.90;;;;;;5112535;28;20032;-75
2021/09/13 05:38:06;;;;;;;1.40;1.23;;;22.00;99.90;;;;;;5095371;28;20028;-75
2021/09/13 05:40:32;;;;;;;1.20;1.10;;;22.00;99.90;;;;;;5094244;28;20369;-73
2021/09/13 05:43:01;;;;;;;2.85;1.30;;;21.90;99.90;;;;;;5106115;28;20032;-74
2021/09/13 05:45:27;;;;;;;1.70;1.15;;;21.90;99.90;;;;;;5085021;28;20024;-74
2021/09/13 05:47:53;;;;;;;1.33;1.23;;;21.90;99.90;;;;;;5093454;28;20486;-72
2021/09/13 05:50:18;;;;;;;3.70;1.40;;;21.90;99.90;;;;;;5093568;28;20502;-72
2021/09/13 05:52:44;;;;;;;2.03;1.20;;;21.90;99.90;;;;;;5092788;28;20503;-72
2021/09/13 05:55:10;;;;;;;2.92;1.63;;;21.90;99.90;;;;;;5112718;28;20493;-75
2021/09/13 05:57:35;;;;;;;2.28;1.50;;;21.90;99.90;;;;;;5097004;28;20032;-70
2021/09/13 06:00:01;;;;;;;2.45;1.20;;;21.90;99.90;;;;;;5093568;28;20024;-72
2021/09/13 06:02:27;;;;;;;1.95;1.30;;;21.90;99.90;;;;;;5095706;28;20028;-72
2021/09/13 06:04:54;;;;;;;1.30;1.20;;;21.90;99.90;;;;;;5112139;28;20379;-70
2021/09/13 06:07:20;;;;;;;3.20;1.20;;;21.90;99.90;;;;;;5110931;28;20020;-74
2021/09/13 06:09:46;;;;;;;1.48;1.20;;;21.90;99.90;;;;;;5114198;28;20030;-71
2021/09/13 06:12:14;;;;;;;1.75;1.30;;;21.90;99.90;;;;;;5111840;28;20020;-72
2021/09/13 06:14:40;;;;;;;5.57;1.50;;;21.90;99.90;;;;;;5109099;28;20389;-71
2021/09/13 06:17:06;;;;;;;2.78;1.33;;;21.90;99.90;;;;;;5105916;28;20027;-71
2021/09/13 06:19:31;;;;;;;1.33;1.10;;;21.90;99.90;;;;;;5100268;28;20065;-71
2021/09/13 06:21:57;;;;;;;2.40;1.33;;;21.90;99.90;;;;;;5113712;28;20505;-71
2021/09/13 06:24:22;;;;;;;1.40;1.08;;;21.80;99.90;;;;;;5113534;28;20107;-71
2021/09/13 06:26:48;;;;;;;2.05;1.13;;;21.80;99.90;;;;;;5095621;28;20096;-71
2021/09/13 06:29:15;;;;;;;2.17;1.45;;;21.80;99.90;;;;;;5113136;28;20028;-71
2021/09/13 06:31:40;;;;;;;1.73;1.20;;;21.80;99.90;;;;;;5112078;28;20032;-68
2021/09/13 06:34:07;;;;;;;2.45;1.27;;;21.80;99.90;;;;;;5111633;28;20027;-68
2021/09/13 06:36:33;;;;;;;1.50;1.20;;;21.80;99.90;;;;;;5112868;28;20479;-69
2021/09/13 06:38:59;;;;;;;2.72;1.42;;;21.90;99.90;;;;;;5113035;28;20042;-69
2021/09/13 06:41:24;;;;;;;2.33;1.10;;;21.80;99.90;;;;;;5093346;28;20102;-69
2021/09/13 06:43:52;;;;;;;1.85;1.20;;;21.90;99.90;;;;;;5113151;28;20055;-68
2021/09/13 06:46:22;;;;;;;1.33;1.20;;;21.80;99.90;;;;;;5095760;28;20020;-69
2021/09/13 06:48:49;;;;;;;2.40;1.60;;;21.80;99.90;;;;;;5093329;28;20369;-69
2021/09/13 06:51:15;;;;;;;1.83;1.25;;;21.80;99.90;;;;;;5092588;28;20136;-69
2021/09/13 06:53:40;;;;;;;1.70;1.30;;;21.80;99.90;;;;;;5092354;28;20103;-69
2021/09/13 06:56:06;;;;;;;3.47;1.33;;;21.80;99.90;;;;;;5092678;28;20035;-69
2021/09/13 06:58:35;;;;;;;2.00;1.27;;;21.80;99.90;;;;;;5088985;28;20380;-67
2021/09/13 07:01:00;;;;;;;1.45;1.00;;;21.80;99.90;;;;;;5091991;28;20446;-68
2021/09/13 07:03:26;;;;;;;1.95;1.40;;;21.80;99.90;;;;;;5091630;28;20100;-68
2021/09/13 07:05:52;;;;;;;1.88;1.48;;;21.80;99.90;;;;;;5092298;28;20525;-69
2021/09/13 07:08:18;;;;;;;2.70;1.50;;;21.80;99.90;;;;;;5092622;28;20032;-68
2021/09/13 07:10:43;;;;;;;1.65;1.25;;;21.80;99.90;;;;;;5091990;28;20106;-69
2021/09/13 07:13:09;;;;;;;2.50;1.33;;;21.80;99.90;;;;;;5095569;28;20504;-68
2021/09/13 07:15:35;;;;;;;1.98;1.30;;;21.80;99.90;;;;;;5078261;28;20388;-69
2021/09/13 07:18:01;;;;;;;2.47;1.45;;;21.80;99.90;;;;;;5071857;28;20043;-69
2021/09/13 07:20:26;;;;;;;2.25;1.33;;;21.80;99.90;;;;;;5071669;28;20091;-69
2021/09/13 07:22:52;;;;;;;1.60;1.15;;;21.80;99.90;;;;;;5072906;28;20030;-68
2021/09/13 07:25:18;;;;;;;1.73;1.42;;;21.70;99.90;;;;;;5072393;28;20021;-69
2021/09/13 07:27:44;;;;;;;2.20;1.35;;;21.70;99.90;;;;;;5071339;28;20501;-68
2021/09/13 07:30:11;;;;;;;3.20;1.60;;;21.80;99.90;;;;;;5077159;28;20064;-68
2021/09/13 07:32:37;;;;;;;1.88;1.58;;;21.80;99.90;;;;;;5072523;28;20037;-68
2021/09/13 07:35:06;;;;;;;2.10;1.50;;;21.70;99.90;;;;;;5071763;28;20025;-69
2021/09/13 07:37:32;;;;;;;1.85;1.50;;;21.70;99.90;;;;;;5071270;28;20063;-68
2021/09/13 07:39:57;;;;;;;3.55;1.60;;;21.70;99.90;;;;;;5071668;28;20029;-68
2021/09/13 07:42:23;;;;;;;9.75;1.65;;;21.70;99.90;;;;;;5088989;28;20029;-74
2021/09/13 07:44:50;;;;;;;1.98;1.25;;;21.70;99.90;;;;;;5074768;28;20472;-76
2021/09/13 07:47:15;;;;;;;2.38;1.70;;;21.70;99.90;;;;;;5071979;28;20376;-70
2021/09/13 07:49:41;;;;;;;1.92;1.20;;;21.70;99.90;;;;;;5087085;28;20031;-70
2021/09/13 07:52:07;;;;;;;2.28;1.50;;;21.60;99.90;;;;;;5071509;28;20028;-68
2021/09/13 07:54:32;;;;;;;2.15;1.42;;;21.60;99.90;;;;;;5071377;28;20487;-68
2021/09/13 07:56:58;;;;;;;1.52;1.13;;;21.60;99.90;;;;;;5071450;28;20024;-70
2021/09/13 07:59:23;;;;;;;2.88;1.35;;;21.60;99.90;;;;;;5071185;28;20085;-69
2021/09/13 08:01:49;;;;;;;1.55;1.30;;;21.60;99.90;;;;;;5054740;28;20067;-70
2021/09/13 08:04:15;;;;;;;2.05;1.58;;;21.60;99.90;;;;;;5071658;28;20027;-71
2021/09/13 08:06:41;;;;;;;3.15;1.45;;;21.60;99.90;;;;;;5071219;28;20380;-69
2021/09/13 08:09:07;;;;;;;1.92;1.20;;;21.60;99.90;;;;;;5071477;28;20551;-70
2021/09/13 08:11:33;;;;;;;2.25;1.42;;;21.60;99.90;;;;;;5071268;28;20361;-71
2021/09/13 08:13:59;;;;;;;2.47;1.35;;;21.60;99.90;;;;;;5071521;28;20116;-69
2021/09/13 08:16:25;;;;;;;2.55;1.33;;;21.60;99.90;;;;;;5074298;28;20095;-71
2021/09/13 08:18:51;;;;;;;2.35;1.30;;;21.60;99.90;;;;;;5075433;28;20025;-66
2021/09/13 08:21:19;;;;;;;2.35;1.20;;;21.70;99.90;;;;;;5075678;28;20049;-70
2021/09/13 08:23:46;;;;;;;1.98;1.48;;;21.70;99.90;;;;;;5090339;28;20036;-70
2021/09/13 08:26:11;;;;;;;2.78;1.30;;;21.70;99.90;;;;;;5095234;28;20103;-66
2021/09/13 08:28:37;;;;;;;2.58;1.20;;;21.70;99.90;;;;;;5093872;28;20103;-71
2021/09/13 08:31:04;;;;;;;2.45;1.48;;;21.70;99.90;;;;;;5075507;28;20058;-71
2021/09/13 08:33:29;;;;;;;2.22;1.20;;;21.70;99.90;;;;;;5095132;28;20028;-71
2021/09/13 08:35:55;;;;;;;2.63;1.10;;;21.70;99.90;;;;;;5081516;28;20118;-69
2021/09/13 08:38:22;;;;;;;1.98;1.40;;;21.70;99.90;;;;;;5074708;28;20033;-69
2021/09/13 08:40:47;;;;;;;2.92;1.40;;;21.70;99.90;;;;;;5075369;28;20032;-70
2021/09/13 08:43:14;;;;;;;3.17;1.30;;;21.70;99.90;;;;;;5074871;28;20031;-69
2021/09/13 08:45:46;;;;;;;1.70;1.10;;;21.70;99.90;;;;;;5075679;28;20824;-71
2021/09/13 08:53:21;;;;;;;2.53;1.40;;;21.80;99.90;;;;;;5074626;28;20027;-69
2021/09/13 08:55:50;;;;;;;3.50;1.20;;;21.80;99.90;;;;;;5074985;28;20468;-71
2021/09/13 08:58:21;;;;;;;2.42;1.30;;;21.80;99.90;;;;;;5075079;28;20048;-70
2021/09/13 09:00:47;;;;;;;4.32;1.60;;;21.80;99.90;;;;;;5084605;28;20024;-70
2021/09/13 09:03:14;;;;;;;2.08;1.15;;;21.80;99.90;;;;;;5094886;28;20032;-69
2021/09/13 09:05:48;;;;;;;1.60;1.05;;;21.80;99.90;;;;;;5083779;28;20020;-68
2021/09/13 09:08:31;;;;;;;2.13;1.30;;;21.80;99.90;;;;;;5074679;28;20028;-69
2021/09/13 09:11:02;;;;;;;3.53;1.10;;;21.80;99.90;;;;;;5074515;28;20104;-68
2021/09/13 09:13:43;;;;;;;1.88;1.33;;;21.90;99.90;;;;;;5074424;28;20036;-70
2021/09/13 09:16:15;;;;;;;2.80;1.27;;;21.90;99.90;;;;;;5077670;28;20045;-69
2021/09/13 09:18:48;;;;;;;3.47;1.15;;;21.90;99.90;;;;;;5091058;28;20105;-67
2021/09/13 09:21:33;;;;;;;2.92;1.00;;;21.90;99.90;;;;;;5090790;28;20427;-67
2021/09/13 09:24:04;;;;;;;3.10;1.40;;;21.90;99.90;;;;;;5088400;28;20028;-67
2021/09/13 09:26:31;;;;;;;1.60;1.08;;;21.90;99.90;;;;;;5082927;28;20089;-68
2021/09/13 09:28:58;;;;;;;2.28;1.15;;;21.90;99.90;;;;;;5113566;28;20063;-68
2021/09/13 09:31:38;;;;;;;2.42;1.20;;;21.90;99.90;;;;;;5098688;28;20020;-70
2021/09/13 09:34:25;;;;;;;2.47;1.13;;;21.90;99.90;;;;;;5094386;28;20372;-69
2021/09/13 09:37:07;;;;;;;1.75;1.23;;;21.90;99.90;;;;;;5094110;28;20024;-68
2021/09/13 09:39:37;;;;;;;1.90;1.20;;;22.00;99.90;;;;;;5094043;28;20035;-69
2021/09/13 09:42:04;;;;;;;1.88;1.13;;;22.00;99.90;;;;;;5094200;28;20095;-68
2021/09/13 09:44:33;;;;;;;1.85;1.10;;;22.00;99.90;;;;;;5097354;28;20036;-69
2021/09/13 09:47:07;;;;;;;1.95;1.20;;;22.00;99.90;;;;;;5094151;28;20481;-69
2021/09/13 09:49:53;;;;;;;2.03;1.20;;;22.00;99.90;;;;;;5093881;28;20035;-70
2021/09/13 09:52:37;;;;;;;4.03;1.40;;;22.00;99.90;;;;;;5094023;28;20032;-68
2021/09/13 09:55:17;;;;;;;1.80;1.10;;;22.00;99.90;;;;;;5094914;28;20020;-68
2021/09/13 09:57:46;;;;;;;2.10;1.02;;;22.00;99.90;;;;;;5073237;28;20298;-69
2021/09/13 10:00:27;;;;;;;2.10;1.00;;;22.00;99.90;;;;;;5079322;28;20460;-70
2021/09/13 10:02:55;;;;;;;1.77;1.20;;;22.10;99.90;;;;;;5107142;28;20032;-68
2021/09/13 10:05:26;;;;;;;3.17;1.10;;;22.10;99.90;;;;;;5100872;28;20027;-67
2021/09/13 10:07:52;;;;;;;2.25;1.02;;;22.10;99.90;;;;;;5099031;28;20169;-70
2021/09/13 10:10:19;;;;;;;4.65;1.23;;;22.10;99.90;;;;;;5096719;28;20038;-72
2021/09/13 10:12:46;;;;;;;2.20;0.82;;;22.10;99.90;;;;;;5093711;28;20026;-67
2021/09/13 10:15:13;;;;;;;1.75;1.20;;;22.10;99.90;;;;;;5094046;28;20039;-72
2021/09/13 10:17:38;;;;;;;2.60;1.52;;;22.10;99.90;;;;;;5109233;28;20046;-68
2021/09/13 10:20:06;;;;;;;2.50;1.23;;;22.10;99.90;;;;;;5113943;28;20107;-69
2021/09/13 10:22:40;;;;;;;1.60;1.30;;;22.10;99.90;;;;;;5113379;28;20024;-68
2021/09/13 10:25:07;;;;;;;1.15;0.90;;;22.10;99.90;;;;;;5106706;28;20020;-68
2021/09/13 10:27:41;;;;;;;1.85;1.05;;;22.10;99.90;;;;;;5091865;28;20059;-70
2021/09/13 10:30:11;;;;;;;1.73;1.30;;;22.20;99.90;;;;;;5093253;28;20024;-69
2021/09/13 10:32:39;;;;;;;1.92;1.08;;;22.20;99.90;;;;;;5092984;28;20081;-69
2021/09/13 10:35:06;;;;;;;2.20;1.23;;;22.20;99.90;;;;;;5093026;28;20024;-70
2021/09/13 10:37:42;;;;;;;2.03;1.27;;;22.20;99.90;;;;;;5092728;28;20028;-68
2021/09/13 10:40:16;;;;;;;2.63;1.00;;;22.20;99.90;;;;;;5093099;28;20032;-68
2021/09/13 10:42:45;;;;;;;2.13;1.40;;;22.20;99.90;;;;;;5092716;28;20057;-67
2021/09/13 10:45:27;;;;;;;1.65;1.10;;;22.20;99.90;;;;;;5096151;28;20024;-70
2021/09/13 10:47:58;;;;;;;1.90;1.10;;;22.20;99.90;;;;;;5092609;28;20058;-69
2021/09/13 10:50:52;;;;;;;1.50;0.95;;;22.20;99.90;;;;;;5096060;28;20491;-70
2021/09/13 10:53:17;;;;;;;1.40;1.30;;;22.30;99.90;;;;;;5072861;28;20387;-68
2021/09/13 10:55:43;;;;;;;2.85;1.20;;;22.20;99.90;;;;;;5082534;28;20020;-68
2021/09/13 10:58:17;;;;;;;1.98;1.40;;;22.30;99.90;;;;;;5103493;28;20028;-69
2021/09/13 11:00:45;;;;;;;;;;;22.30;99.90;;;;;;5097115;28;20054;-68
2021/09/13 11:03:23;;;;;;;1.67;1.05;;;22.30;99.90;;;;;;5112972;28;19912;-70
2021/09/13 11:06:24;;;;;;;1.52;1.05;;;22.30;99.90;;;;;;5112999;28;20077;-68
2021/09/13 11:09:01;;;;;;;1.40;1.10;;;22.30;99.90;;;;;;5112992;28;20035;-68
2021/09/13 11:11:27;;;;;;;1.35;1.10;;;22.30;99.90;;;;;;5094414;28;20032;-70
2021/09/13 11:14:06;;;;;;;2.67;1.15;;;22.30;99.90;;;;;;5112780;28;20019;-70
2021/09/13 11:16:34;;;;;;;1.65;1.20;;;22.30;99.90;;;;;;5112394;28;20077;-70
2021/09/13 11:19:02;;;;;;;3.13;1.50;;;22.30;99.90;;;;;;5112742;28;20036;-69
2021/09/13 11:21:31;;;;;;;1.60;1.10;;;22.30;99.90;;;;;;5112466;28;20024;-67
2021/09/13 11:23:58;;;;;;;2.00;1.40;;;22.30;99.90;;;;;;5112595;28;20028;-70
2021/09/13 11:26:53;;;;;;;3.58;1.27;;;22.30;99.90;;;;;;5112360;28;20024;-70
2021/09/13 11:29:23;;;;;;;2.72;1.60;;;22.30;99.90;;;;;;5112758;28;20034;-70
2021/09/13 11:31:52;;;;;;;2.28;1.20;;;22.30;99.90;;;;;;5112718;28;20490;-70
2021/09/13 11:34:31;;;;;;;1.75;1.35;;;22.20;99.90;;;;;;5110769;28;20066;-70
2021/09/13 11:37:14;;;;;;;2.50;1.48;;;22.30;99.90;;;;;;5112453;28;20019;-70
2021/09/13 11:39:46;;;;;;;2.28;1.10;;;22.30;99.90;;;;;;5111618;28;20031;-72
2021/09/13 11:42:25;;;;;;;2.08;1.27;;;22.30;99.90;;;;;;5112042;28;20107;-68
2021/09/13 11:44:55;;;;;;;2.65;1.70;;;22.20;99.90;;;;;;5112214;28;20387;-72
2021/09/13 11:47:24;;;;;;;2.15;1.20;;;22.30;99.90;;;;;;5110204;28;20084;-72
2021/09/13 11:49:53;;;;;;;2.63;1.58;;;22.30;99.90;;;;;;5087592;28;20031;-68
2021/09/13 11:52:23;;;;;;;1.83;1.15;;;22.20;99.90;;;;;;5092055;28;20081;-70
2021/09/13 11:55:02;;;;;;;3.13;1.67;;;22.20;99.90;;;;;;5091863;28;20510;-68
2021/09/13 11:57:40;;;;;;;3.70;2.92;;;22.20;99.90;;;;;;5091460;28;20036;-72
2021/09/13 12:00:10;;;;;;;4.13;2.72;;;22.30;99.90;;;;;;5091664;28;20027;-75
2021/09/13 12:02:37;;;;;;;4.85;3.00;;;22.30;99.90;;;;;;5092399;28;20063;-71
2021/09/13 12:05:12;;;;;;;4.32;2.90;;;22.30;99.90;;;;;;5091618;28;20058;-69
2021/09/13 12:07:38;;;;;;;4.25;2.65;;;22.30;99.90;;;;;;5091400;28;20053;-70
2021/09/13 12:10:05;;;;;;;6.18;2.78;;;22.30;99.90;;;;;;5094061;28;20471;-68
2021/09/13 12:12:31;;;;;;;3.55;2.80;;;22.30;99.90;;;;;;5111682;28;20051;-69
2021/09/13 12:15:05;;;;;;;3.35;2.47;;;22.30;99.90;;;;;;5112110;28;20024;-70
2021/09/13 12:17:41;;;;;;;;;;;22.30;99.90;;;;;;5092981;28;20032;-67
2021/09/13 12:20:21;;;;;;;13.00;2.92;;;22.30;99.90;;;;;;5091508;28;19908;-73
2021/09/13 12:22:55;;;;;;;4.90;2.80;;;22.30;99.90;;;;;;5091746;28;20031;-72
2021/09/13 12:25:21;;;;;;;2.95;2.35;;;22.30;99.90;;;;;;5091199;28;20099;-70
2021/09/13 12:27:49;;;;;;;5.47;2.97;;;22.40;99.90;;;;;;5091670;28;20111;-71
2021/09/13 12:30:30;;;;;;;4.30;2.65;;;22.40;99.90;;;;;;5092938;28;20052;-74
2021/09/13 12:33:00;;;;;;;3.33;2.67;;;22.40;99.90;;;;;;5071362;28;20024;-69
2021/09/13 12:35:42;;;;;;;4.22;2.70;;;22.40;99.90;;;;;;5070972;28;20060;-70
2021/09/13 12:38:18;;;;;;;3.15;2.63;;;22.40;99.90;;;;;;5071200;28;20036;-69
2021/09/13 12:40:54;;;;;;;3.78;2.40;;;22.40;99.90;;;;;;5071064;28;20019;-67
2021/09/13 12:43:25;;;;;;;3.83;3.00;;;22.40;99.90;;;;;;5070833;28;20020;-66
2021/09/13 12:46:20;;;;;;;2.97;2.40;;;22.40;99.90;;;;;;5077042;28;20024;-68
2021/09/13 12:48:52;;;;;;;3.05;2.55;;;22.40;99.90;;;;;;5091457;28;20017;-70
2021/09/13 12:51:23;;;;;;;3.53;2.35;;;22.50;99.90;;;;;;5091426;28;20043;-68
2021/09/13 12:54:09;;;;;;;2.90;2.17;;;22.50;99.90;;;;;;5091511;28;20050;-70
2021/09/13 12:56:47;;;;;;;4.28;2.58;;;22.50;99.90;;;;;;5092140;28;20036;-69
2021/09/13 12:59:18;;;;;;;2.78;2.00;;;22.50;99.90;;;;;;5071047;28;20115;-70
2021/09/13 13:01:46;;;;;;;3.10;2.30;;;22.50;99.90;;;;;;5094495;28;20070;-69